Time;durP1;ratioP1;P1;durP2;ratioP2;P2;SDS_P1;SDS_P2;PMS_P1;PMS_P2;Temp;Humidity;BMP_temperature;BMP_pressure;BME280_temperature;BME280_humidity;BME280_pressure;Samples;Min_cycle;Max_cycle;Signal;HPM_P1;HPM_P2
2023/05/30 00:01:38;;;;;;;;;;;12.10;93.60;;;;;;5068367;28;19940;-53
2023/05/30 00:04:04;;;;;;;;;;;12.10;93.30;;;;;;5068679;28;19904;-54
2023/05/30 00:06:29;;;;;;;;;;;12.10;94.10;;;;;;5070943;28;19905;-54
2023/05/30 00:08:55;;;;;;;;;;;12.00;94.70;;;;;;5071844;28;19904;-54
2023/05/30 00:11:23;;;;;;;;;;;12.00;95.50;;;;;;5054295;28;20061;-53
2023/05/30 00:13:49;;;;;;;;;;;11.90;96.20;;;;;;5083834;28;19911;-51
2023/05/30 00:16:15;;;;;;;;;;;11.90;97.00;;;;;;5092692;28;20389;-52
2023/05/30 00:18:41;;;;;;;;;;;11.80;97.50;;;;;;5069584;28;19904;-53
2023/05/30 00:21:07;;;;;;;;;;;11.80;98.40;;;;;;5072370;28;20315;-51
2023/05/30 00:23:35;;;;;;;;;;;11.70;99.00;;;;;;5072156;28;20327;-52
2023/05/30 00:26:01;;;;;;;;;;;11.70;98.60;;;;;;5057051;28;20372;-52
2023/05/30 00:28:27;;;;;;;;;;;11.60;99.40;;;;;;5071224;28;19905;-53
2023/05/30 00:30:52;;;;;;;;;;;11.60;99.90;;;;;;5071954;28;20354;-53
2023/05/30 00:33:18;;;;;;;;;;;11.60;99.20;;;;;;5072098;28;20212;-53
2023/05/30 00:35:43;;;;;;;;;;;11.50;99.20;;;;;;5082724;28;19908;-54
2023/05/30 00:38:09;;;;;;;;;;;11.50;99.60;;;;;;5090588;28;19904;-53
2023/05/30 00:40:34;;;;;;;;;;;11.50;99.90;;;;;;5090947;28;19912;-52
2023/05/30 00:43:00;;;;;;;;;;;11.40;99.90;;;;;;5077840;28;19904;-53
2023/05/30 00:45:25;;;;;;;;;;;11.40;99.90;;;;;;5080173;28;20339;-53
2023/05/30 00:47:53;;;;;;;;;;;11.30;99.90;;;;;;5071244;28;19911;-53
2023/05/30 00:50:18;;;;;;;;;;;11.30;99.90;;;;;;5071386;28;19905;-53
2023/05/30 00:52:47;;;;;;;;;;;11.30;99.90;;;;;;5080420;28;19911;-53
2023/05/30 00:55:13;;;;;;;;;;;11.30;99.90;;;;;;5071725;28;19956;-52
2023/05/30 00:57:40;;;;;;;;;;;11.20;99.90;;;;;;5071237;28;19927;-51
2023/05/30 01:00:06;;;;;;;;;;;11.20;99.90;;;;;;5076756;28;19978;-51
2023/05/30 01:02:33;;;;;;;;;;;11.20;99.90;;;;;;5090503;28;20416;-52
2023/05/30 01:04:59;;;;;;;;;;;11.10;99.90;;;;;;5092214;28;19938;-50
2023/05/30 01:07:24;;;;;;;;;;;11.00;99.90;;;;;;5089654;28;19908;-51
2023/05/30 01:09:52;;;;;;;;;;;11.00;99.90;;;;;;5071147;28;19909;-53
2023/05/30 01:12:36;;;;;;;;;;;11.00;99.90;;;;;;5071539;28;19904;-53
2023/05/30 01:15:17;;;;;;;;;;;10.90;99.90;;;;;;5071117;28;19905;-53
2023/05/30 01:17:44;;;;;;;;;;;10.90;99.90;;;;;;5070071;28;19958;-54
2023/05/30 01:20:13;;;;;;;;;;;10.80;99.90;;;;;;5070584;28;20281;-53
2023/05/30 01:23:00;;;;;;;;;;;10.80;99.90;;;;;;5070988;28;19912;-53
2023/05/30 01:25:35;;;;;;;;;;;10.70;99.90;;;;;;5071184;28;19909;-54
2023/05/30 01:28:12;;;;;;;;;;;10.70;99.90;;;;;;5070546;28;19927;-52
2023/05/30 01:30:40;;;;;;;;;;;10.70;99.90;;;;;;5070829;28;20293;-54
2023/05/30 01:33:09;;;;;;;;;;;10.70;99.90;;;;;;5070966;28;20316;-55
2023/05/30 01:35:35;;;;;;;;;;;10.60;99.90;;;;;;5071346;28;19908;-54
2023/05/30 01:38:00;;;;;;;;;;;10.60;99.90;;;;;;5070712;28;20423;-54
2023/05/30 01:40:26;;;;;;;;;;;10.50;99.90;;;;;;5070460;28;19909;-53
2023/05/30 01:42:57;;;;;;;;;;;10.50;99.90;;;;;;5081697;28;19904;-53
2023/05/30 01:45:28;;;;;;;;;;;10.50;99.90;;;;;;5090471;28;19908;-53
2023/05/30 01:48:12;;;;;;;;;;;10.50;99.90;;;;;;5070267;28;19990;-52
2023/05/30 01:50:41;;;;;;;;;;;10.40;99.90;;;;;;5068909;28;19910;-50
2023/05/30 01:53:09;;;;;;;;;;;10.40;99.90;;;;;;5070619;28;19905;-53
2023/05/30 01:55:35;;;;;;;;;;;10.40;99.90;;;;;;5070352;28;19915;-51
2023/05/30 01:58:01;;;;;;;;;;;10.40;99.90;;;;;;5082816;28;20293;-55
2023/05/30 02:00:27;;;;;;;;;;;10.30;99.90;;;;;;5090043;28;19908;-55
2023/05/30 02:02:53;;;;;;;;;;;10.30;99.90;;;;;;5070852;28;20418;-56
2023/05/30 02:05:18;;;;;;;;;;;10.30;99.90;;;;;;5070634;28;19987;-55
2023/05/30 02:07:44;;;;;;;;;;;10.30;99.90;;;;;;5070012;28;19974;-55
2023/05/30 02:10:10;;;;;;;;;;;10.30;99.90;;;;;;5077040;28;19915;-54
2023/05/30 02:12:35;;;;;;;;;;;10.20;99.90;;;;;;5087258;28;19968;-55
2023/05/30 02:15:01;;;;;;;;;;;10.20;99.90;;;;;;5070255;28;19966;-55
2023/05/30 02:17:26;;;;;;;;;;;10.10;99.90;;;;;;5070098;28;19904;-55
2023/05/30 02:19:52;;;;;;;;;;;10.20;99.90;;;;;;5069302;28;20003;-55
2023/05/30 02:22:17;;;;;;;;;;;10.10;99.90;;;;;;5070004;28;20362;-55
2023/05/30 02:24:43;;;;;;;;;;;10.00;99.90;;;;;;5069215;28;19912;-56
2023/05/30 02:27:09;;;;;;;;;;;10.10;99.90;;;;;;5069311;28;19912;-55
2023/05/30 02:29:34;;;;;;;;;;;10.00;99.90;;;;;;5067766;28;19904;-56
2023/05/30 02:32:00;;;;;;;;;;;10.00;99.90;;;;;;5051409;28;20377;-54
2023/05/30 02:34:25;;;;;;;;;;;10.00;99.90;;;;;;5051154;28;19905;-55
2023/05/30 02:36:51;;;;;;;;;;;10.00;99.90;;;;;;5052753;28;19994;-55
2023/05/30 02:39:16;;;;;;;;;;;10.00;99.90;;;;;;5050720;28;19962;-55
2023/05/30 02:41:42;;;;;;;;;;;10.00;99.90;;;;;;5069050;28;19912;-55
2023/05/30 02:44:07;;;;;;;;;;;9.90;99.90;;;;;;5068788;28;20438;-55
2023/05/30 02:46:33;;;;;;;;;;;9.90;99.90;;;;;;5070175;28;19908;-55
2023/05/30 02:48:59;;;;;;;;;;;9.90;99.90;;;;;;5068848;28;19939;-55
2023/05/30 02:51:25;;;;;;;;;;;9.90;99.90;;;;;;5068934;28;19954;-56
2023/05/30 02:53:50;;;;;;;;;;;9.90;99.90;;;;;;5068862;28;19958;-55
2023/05/30 02:56:16;;;;;;;;;;;9.80;99.90;;;;;;5062866;28;20220;-55
2023/05/30 02:58:41;;;;;;;;;;;9.80;99.90;;;;;;5048348;28;19904;-54
2023/05/30 03:01:07;;;;;;;;;;;9.80;99.90;;;;;;5050250;28;19954;-55
2023/05/30 03:03:34;;;;;;;;;;;9.80;99.90;;;;;;5051225;28;20393;-54
2023/05/30 03:06:01;;;;;;;;;;;9.70;99.90;;;;;;5044619;28;20366;-53
2023/05/30 03:08:28;;;;;;;;;;;9.70;99.90;;;;;;5068532;28;19904;-53
2023/05/30 03:10:54;;;;;;;;;;;9.60;99.90;;;;;;5038887;28;20394;-53
2023/05/30 03:13:20;;;;;;;;;;;9.60;99.90;;;;;;5064749;28;19955;-54
2023/05/30 03:15:45;;;;;;;;;;;9.60;99.90;;;;;;5069075;28;19996;-52
2023/05/30 03:18:11;;;;;;;;;;;9.60;99.90;;;;;;5061275;28;19904;-53
2023/05/30 03:20:36;;;;;;;;;;;9.60;99.90;;;;;;5067023;28;19916;-53
2023/05/30 03:23:02;;;;;;;;;;;9.60;99.90;;;;;;5050894;28;19954;-55
2023/05/30 03:25:28;;;;;;;;;;;9.60;99.90;;;;;;5049415;28;19908;-52
2023/05/30 03:27:53;;;;;;;;;;;9.60;99.90;;;;;;5069188;28;19930;-53
2023/05/30 03:30:22;;;;;;;;;;;9.60;99.90;;;;;;5069077;28;19904;-53
2023/05/30 03:32:48;;;;;;;;;;;9.60;99.90;;;;;;5069470;28;19927;-54
2023/05/30 03:35:14;;;;;;;;;;;9.60;99.90;;;;;;5069216;28;19908;-53
2023/05/30 03:37:39;;;;;;;;;;;9.50;99.90;;;;;;5068285;28;20625;-51
2023/05/30 03:40:05;;;;;;;;;;;9.50;99.90;;;;;;5068236;28;19915;-54
2023/05/30 03:42:31;;;;;;;;;;;9.50;99.90;;;;;;5050755;28;20332;-53
2023/05/30 03:44:56;;;;;;;;;;;9.50;99.90;;;;;;5068827;28;19908;-54
2023/05/30 03:47:22;;;;;;;;;;;9.50;99.90;;;;;;5061954;28;20393;-53
2023/05/30 03:49:48;;;;;;;;;;;9.50;99.90;;;;;;5068000;28;20282;-53
2023/05/30 03:52:15;;;;;;;;;;;9.40;99.90;;;;;;5042683;28;19915;-54
2023/05/30 03:54:41;;;;;;;;;;;9.40;99.90;;;;;;5068400;28;20285;-52
2023/05/30 03:57:06;;;;;;;;;;;9.40;99.90;;;;;;5064540;28;19919;-52
2023/05/30 03:59:32;;;;;;;;;;;9.50;99.90;;;;;;5069909;28;19908;-53
2023/05/30 04:01:57;;;;;;;;;;;9.50;99.90;;;;;;5089022;28;20364;-53
2023/05/30 04:04:23;;;;;;;;;;;9.50;99.90;;;;;;5088543;28;20432;-54
2023/05/30 04:06:49;;;;;;;;;;;9.50;99.90;;;;;;5088401;28;19912;-54
2023/05/30 04:09:14;;;;;;;;;;;9.50;99.90;;;;;;5088399;28;19904;-54
2023/05/30 04:11:39;;;;;;;;;;;9.60;99.90;;;;;;5070496;28;19904;-53
2023/05/30 04:14:05;;;;;;;;;;;9.60;99.90;;;;;;5088451;28;19911;-55
2023/05/30 04:16:30;;;;;;;;;;;9.60;99.90;;;;;;5088936;28;19904;-54
2023/05/30 04:18:56;;;;;;;;;;;9.60;99.90;;;;;;5066720;28;19940;-52
2023/05/30 04:21:22;;;;;;;;;;;9.60;99.90;;;;;;5067377;28;19981;-54
2023/05/30 04:23:47;;;;;;;;;;;9.70;99.90;;;;;;5065982;28;19916;-54
2023/05/30 04:26:13;;;;;;;;;;;9.70;99.90;;;;;;5067522;28;19995;-55
2023/05/30 04:28:38;;;;;;;;;;;9.70;99.90;;;;;;5066309;28;19915;-54
2023/05/30 04:31:05;;;;;;;;;;;9.70;99.90;;;;;;5068844;28;20007;-54
2023/05/30 04:33:34;;;;;;;;;;;9.80;99.90;;;;;;5068076;28;19904;-55
2023/05/30 04:36:10;;;;;;;;;;;9.80;99.90;;;;;;5067291;28;20068;-53
2023/05/30 04:38:44;;;;;;;;;;;9.80;99.90;;;;;;5066756;28;20305;-54
2023/05/30 04:41:10;;;;;;;;;;;9.80;99.90;;;;;;5066597;28;20342;-55
2023/05/30 04:43:35;;;;;;;;;;;9.80;99.90;;;;;;5051540;28;19944;-54
2023/05/30 04:46:03;;;;;;;;;;;9.80;99.90;;;;;;5067942;28;19911;-54
2023/05/30 04:48:29;;;;;;;;;;;9.80;99.90;;;;;;5067040;28;19905;-54
2023/05/30 04:50:56;;;;;;;;;;;9.80;99.90;;;;;;5068694;28;19915;-54
2023/05/30 04:53:24;;;;;;;;;;;9.80;99.90;;;;;;5072421;28;20292;-53
2023/05/30 04:55:53;;;;;;;;;;;9.80;99.90;;;;;;5055593;28;19908;-54
2023/05/30 04:58:18;;;;;;;;;;;9.90;99.90;;;;;;5070734;28;19908;-53
2023/05/30 05:00:48;;;;;;;;;;;9.90;99.90;;;;;;5086865;28;19908;-54
2023/05/30 05:03:13;;;;;;;;;;;9.90;99.90;;;;;;5071535;28;20200;-53
2023/05/30 05:05:42;;;;;;;;;;;9.80;99.90;;;;;;5071557;28;19904;-54
2023/05/30 05:08:07;;;;;;;;;;;9.90;99.90;;;;;;5068137;28;20937;-52
2023/05/30 05:10:33;;;;;;;;;;;9.90;99.90;;;;;;5068519;28;20434;-54
2023/05/30 05:12:59;;;;;;;;;;;10.00;99.90;;;;;;5062917;28;19927;-54
2023/05/30 05:15:25;;;;;;;;;;;10.00;99.90;;;;;;5075342;28;20373;-51
2023/05/30 05:17:51;;;;;;;;;;;10.00;99.90;;;;;;5052908;28;20139;-50
2023/05/30 05:20:17;;;;;;;;;;;10.00;99.90;;;;;;5053983;28;19915;-53
2023/05/30 05:22:42;;;;;;;;;;;10.00;99.90;;;;;;5069649;28;19905;-54
2023/05/30 05:25:09;;;;;;;;;;;10.10;99.90;;;;;;5079932;28;19989;-57
2023/05/30 05:27:35;;;;;;;;;;;10.10;99.90;;;;;;5067730;28;19912;-54
2023/05/30 05:30:00;;;;;;;;;;;10.10;99.90;;;;;;5065265;28;19912;-56
2023/05/30 05:32:26;;;;;;;;;;;10.20;99.90;;;;;;5079141;28;19915;-55
2023/05/30 05:34:52;;;;;;;;;;;10.20;99.90;;;;;;5070050;28;19911;-55
2023/05/30 05:37:18;;;;;;;;;;;10.20;99.90;;;;;;5078325;28;19926;-54
2023/05/30 05:39:43;;;;;;;;;;;10.30;99.90;;;;;;5067102;28;20332;-54
2023/05/30 05:42:09;;;;;;;;;;;10.30;99.90;;;;;;5069366;28;19974;-54
2023/05/30 05:44:34;;;;;;;;;;;10.30;99.90;;;;;;5072827;28;19912;-51
2023/05/30 05:47:00;;;;;;;;;;;10.40;99.90;;;;;;5065501;28;20281;-51
2023/05/30 05:49:25;;;;;;;;;;;10.40;99.90;;;;;;5058248;28;20365;-55
2023/05/30 05:51:52;;;;;;;;;;;10.50;99.90;;;;;;5065114;28;19966;-54
2023/05/30 05:54:20;;;;;;;;;;;10.50;99.90;;;;;;5066778;28;19908;-54
2023/05/30 05:56:46;;;;;;;;;;;10.60;99.90;;;;;;5080905;28;19912;-54
2023/05/30 05:59:12;;;;;;;;;;;10.70;99.90;;;;;;5067190;28;20295;-54
2023/05/30 06:01:38;;;;;;;;;;;10.70;99.90;;;;;;5052491;28;19936;-54
2023/05/30 06:04:09;;;;;;;;;;;10.90;99.90;;;;;;5068996;28;20405;-54
2023/05/30 06:06:35;;;;;;;;;;;10.80;99.90;;;;;;5052355;28;20397;-54
2023/05/30 06:09:01;;;;;;;;;;;11.00;99.90;;;;;;5077653;28;19904;-54
2023/05/30 06:11:26;;;;;;;;;;;11.00;99.90;;;;;;5068315;28;19908;-54
2023/05/30 06:13:52;;;;;;;;;;;11.10;99.90;;;;;;5061980;28;20306;-51
2023/05/30 06:16:17;;;;;;;;;;;11.10;99.90;;;;;;5064685;28;20283;-53
2023/05/30 06:18:43;;;;;;;;;;;11.10;99.90;;;;;;5069051;28;19998;-53
2023/05/30 06:21:12;;;;;;;;;;;11.20;99.90;;;;;;5064773;28;19952;-54
2023/05/30 06:23:37;;;;;;;;;;;11.30;99.90;;;;;;5067620;28;19999;-54
2023/05/30 06:26:03;;;;;;;;;;;11.40;99.90;;;;;;5069953;28;19987;-55
2023/05/30 06:28:29;;;;;;;;;;;11.30;99.90;;;;;;5051487;28;19908;-55
2023/05/30 06:30:55;;;;;;;;;;;11.40;99.90;;;;;;5066049;28;19927;-54
2023/05/30 06:33:24;;;;;;;;;;;11.50;99.90;;;;;;5069463;28;19931;-51
2023/05/30 06:35:49;;;;;;;;;;;11.50;99.90;;;;;;5069487;28;19933;-54
2023/05/30 06:38:16;;;;;;;;;;;11.50;99.90;;;;;;5069265;28;19951;-51
2023/05/30 06:40:41;;;;;;;;;;;11.60;99.90;;;;;;5059509;28;19908;-52
2023/05/30 06:43:07;;;;;;;;;;;11.70;99.90;;;;;;5049740;28;19911;-54
2023/05/30 06:45:33;;;;;;;;;;;11.70;99.90;;;;;;5065698;28;19924;-55
2023/05/30 06:47:59;;;;;;;;;;;11.80;99.90;;;;;;5059063;28;19915;-54
2023/05/30 06:50:25;;;;;;;;;;;11.90;99.90;;;;;;5061408;28;19927;-55
2023/05/30 06:52:50;;;;;;;;;;;12.00;99.90;;;;;;5068929;28;20063;-54
2023/05/30 06:55:16;;;;;;;;;;;12.10;99.90;;;;;;5051673;28;20519;-54
2023/05/30 06:57:46;;;;;;;;;;;12.20;99.90;;;;;;5069001;28;19938;-52
2023/05/30 07:00:12;;;;;;;;;;;12.30;99.90;;;;;;5077096;28;19915;-54
2023/05/30 07:02:37;;;;;;;;;;;12.40;99.90;;;;;;5069011;28;20346;-53
2023/05/30 07:05:03;;;;;;;;;;;12.40;99.90;;;;;;5069463;28;19961;-53
2023/05/30 07:07:28;;;;;;;;;;;12.50;99.90;;;;;;5069028;28;19904;-52
2023/05/30 07:09:54;;;;;;;;;;;12.50;99.90;;;;;;5083620;28;19911;-53
2023/05/30 07:12:20;;;;;;;;;;;12.60;99.90;;;;;;5067833;28;19904;-53
2023/05/30 07:14:45;;;;;;;;;;;12.70;99.90;;;;;;5082312;28;20161;-53
2023/05/30 07:17:11;;;;;;;;;;;12.70;99.90;;;;;;5062891;28;19905;-53
2023/05/30 07:19:36;;;;;;;;;;;12.90;99.90;;;;;;5046922;28;20205;-54
2023/05/30 07:22:02;;;;;;;;;;;13.00;99.90;;;;;;5049614;28;20048;-53
2023/05/30 07:24:28;;;;;;;;;;;13.10;99.90;;;;;;5067606;28;19914;-53
2023/05/30 07:26:53;;;;;;;;;;;13.30;99.90;;;;;;5069074;28;19912;-53
2023/05/30 07:29:19;;;;;;;;;;;13.40;99.90;;;;;;5073062;28;19987;-53
2023/05/30 07:31:45;;;;;;;;;;;13.60;99.90;;;;;;5068814;28;20380;-54
2023/05/30 07:34:10;;;;;;;;;;;13.70;99.90;;;;;;5053874;28;19950;-54
2023/05/30 07:36:36;;;;;;;;;;;13.90;99.90;;;;;;5067877;28;19940;-53
2023/05/30 07:39:02;;;;;;;;;;;14.00;99.90;;;;;;5050643;28;19935;-54
2023/05/30 07:41:28;;;;;;;;;;;14.10;99.90;;;;;;5068891;28;20328;-54
2023/05/30 07:43:53;;;;;;;;;;;14.20;99.90;;;;;;5066690;28;19908;-54
2023/05/30 07:46:20;;;;;;;;;;;14.20;99.90;;;;;;5056941;28;19905;-54
2023/05/30 07:48:45;;;;;;;;;;;14.30;99.90;;;;;;5049374;28;19987;-53
2023/05/30 07:51:12;;;;;;;;;;;14.50;99.90;;;;;;5062232;28;19987;-53
2023/05/30 07:53:37;;;;;;;;;;;14.60;99.90;;;;;;5068827;28;19905;-54
2023/05/30 07:56:03;;;;;;;;;;;14.70;99.90;;;;;;5071405;28;19916;-52
2023/05/30 07:58:29;;;;;;;;;;;14.90;99.90;;;;;;5065967;28;20278;-53
2023/05/30 08:00:55;;;;;;;;;;;15.20;99.90;;;;;;5050245;28;19998;-54
2023/05/30 08:03:21;;;;;;;;;;;15.10;99.90;;;;;;5074940;28;20384;-54
2023/05/30 08:05:50;;;;;;;;;;;15.50;99.90;;;;;;5087520;28;19919;-53
2023/05/30 08:08:16;;;;;;;;;;;15.70;99.90;;;;;;5074688;28;19905;-54
2023/05/30 08:10:42;;;;;;;;;;;15.80;99.90;;;;;;5068553;28;20294;-55
2023/05/30 08:13:07;;;;;;;;;;;16.00;99.90;;;;;;5068983;28;20297;-54
2023/05/30 08:15:33;;;;;;;;;;;16.70;99.90;;;;;;5068587;28;19970;-54
2023/05/30 08:18:00;;;;;;;;;;;17.60;99.90;;;;;;5047041;28;20017;-55
2023/05/30 08:20:26;;;;;;;;;;;19.10;99.50;;;;;;5057557;28;19954;-55
2023/05/30 08:22:52;;;;;;;;;;;19.80;93.30;;;;;;5068488;28;19958;-56
2023/05/30 08:25:32;;;;;;;;;;;20.80;91.20;;;;;;5068194;28;19912;-56
2023/05/30 08:28:00;;;;;;;;;;;21.40;87.10;;;;;;5052076;28;19909;-56
2023/05/30 08:30:26;;;;;;;;;;;21.90;83.40;;;;;;5059439;28;19905;-55
2023/05/30 08:32:53;;;;;;;;;;;22.30;83.20;;;;;;5067562;28;20266;-56
2023/05/30 08:35:18;;;;;;;;;;;23.00;81.00;;;;;;5065183;28;19905;-56
2023/05/30 08:37:44;;;;;;;;;;;23.40;78.20;;;;;;5053238;28;19913;-56
2023/05/30 08:40:11;;;;;;;;;;;25.00;75.20;;;;;;5053995;28;20053;-56
2023/05/30 08:42:37;;;;;;;;;;;25.30;71.30;;;;;;5051028;28;19908;-57
2023/05/30 08:45:03;;;;;;;;;;;26.00;69.20;;;;;;5068346;28;19904;-56
2023/05/30 08:47:29;;;;;;;;;;;27.10;64.30;;;;;;5065016;28;19981;-56
2023/05/30 08:49:55;;;;;;;;;;;27.50;63.60;;;;;;5066228;28;19904;-57
2023/05/30 08:52:22;;;;;;;;;;;28.40;58.80;;;;;;5063564;28;19908;-56
2023/05/30 08:54:55;;;;;;;;;;;27.90;58.60;;;;;;5068746;28;19908;-56
2023/05/30 08:57:23;;;;;;;;;;;28.30;57.40;;;;;;5063676;28;19923;-57
2023/05/30 08:59:49;;;;;;;;;;;28.60;56.80;;;;;;5052124;28;19921;-56
2023/05/30 09:02:15;;;;;;;;;;;29.30;55.30;;;;;;5068218;28;19911;-56
2023/05/30 09:04:42;;;;;;;;;;;29.00;55.80;;;;;;5069098;28;19904;-56
2023/05/30 09:07:09;;;;;;;;;;;29.50;54.30;;;;;;5064999;28;21204;-56
2023/05/30 09:09:35;;;;;;;;;;;30.20;53.50;;;;;;5062526;28;19912;-56
2023/05/30 09:12:02;;;;;;;;;;;30.00;53.80;;;;;;5070726;28;19951;-56
2023/05/30 09:14:28;;;;;;;;;;;30.40;52.40;;;;;;5071136;28;20003;-56
2023/05/30 09:16:54;;;;;;;;;;;30.40;53.60;;;;;;5069342;28;20078;-54
2023/05/30 09:19:19;;;;;;;;;;;30.50;52.70;;;;;;5050614;28;19904;-56
2023/05/30 09:21:45;;;;;;;;;;;29.70;53.60;;;;;;5068339;28;19932;-56
2023/05/30 09:24:11;;;;;;;;;;;30.30;52.80;;;;;;5071364;28;19908;-56
2023/05/30 09:26:36;;;;;;;;;;;30.90;51.50;;;;;;5069868;28;19908;-56
2023/05/30 09:29:08;;;;;;;;;;;31.00;50.10;;;;;;5070530;28;20019;-56
2023/05/30 09:31:35;;;;;;;;;;;31.00;50.90;;;;;;5070744;28;19908;-55
2023/05/30 09:34:01;;;;;;;;;;;30.40;50.50;;;;;;5071332;28;19904;-55
2023/05/30 09:36:28;;;;;;;;;;;30.60;50.20;;;;;;5071293;28;20022;-55
2023/05/30 09:38:54;;;;;;;;;;;30.80;49.50;;;;;;5069886;28;20401;-55
2023/05/30 09:41:20;;;;;;;;;;;31.20;49.40;;;;;;5070867;28;19916;-55
2023/05/30 09:43:52;;;;;;;;;;;31.00;47.90;;;;;;5070850;28;19909;-55
2023/05/30 09:46:17;;;;;;;;;;;31.00;50.30;;;;;;5070400;28;19931;-55
2023/05/30 09:48:43;;;;;;;;;;;31.40;48.80;;;;;;5051972;28;19985;-55
2023/05/30 09:51:08;;;;;;;;;;;31.70;49.10;;;;;;5070665;28;19904;-56
2023/05/30 09:53:34;;;;;;;;;;;32.00;48.60;;;;;;5071098;28;19908;-56
2023/05/30 09:56:01;;;;;;;;;;;32.60;47.90;;;;;;5052868;28;20190;-56
2023/05/30 09:58:26;;;;;;;;;;;32.10;48.20;;;;;;5055570;28;19931;-56
2023/05/30 10:00:53;;;;;;;;;;;32.10;47.00;;;;;;5069234;28;20353;-56
2023/05/30 10:03:19;;;;;;;;;;;32.10;48.00;;;;;;5069136;28;19905;-56
2023/05/30 10:05:45;;;;;;;;;;;31.90;47.30;;;;;;5069902;28;20373;-55
2023/05/30 10:08:11;;;;;;;;;;;32.10;48.50;;;;;;5069141;28;19951;-55
2023/05/30 10:10:37;;;;;;;;;;;31.90;45.80;;;;;;5069785;28;20001;-56
2023/05/30 10:13:03;;;;;;;;;;;31.50;47.50;;;;;;5058561;28;19905;-56
2023/05/30 10:15:29;;;;;;;;;;;31.80;47.70;;;;;;5047758;28;19908;-56
2023/05/30 10:17:58;;;;;;;;;;;32.40;46.80;;;;;;5057998;28;20354;-56
2023/05/30 10:20:25;;;;;;;;;;;32.70;48.70;;;;;;5057566;28;19920;-56
2023/05/30 10:22:54;;;;;;;;;;;32.70;49.30;;;;;;5074972;28;19908;-56
2023/05/30 10:25:20;;;;;;;;;;;31.90;48.00;;;;;;5056142;28;19905;-56
2023/05/30 10:27:48;;;;;;;;;;;31.70;46.60;;;;;;5057186;28;20029;-56
2023/05/30 10:30:15;;;;;;;;;;;31.90;46.50;;;;;;5058826;28;20399;-56
2023/05/30 10:32:43;;;;;;;;;;;32.00;47.50;;;;;;5049360;28;20357;-56
2023/05/30 10:35:11;;;;;;;;;;;32.00;47.10;;;;;;5063743;28;19927;-56
2023/05/30 10:37:37;;;;;;;;;;;32.20;46.40;;;;;;5066549;28;19961;-56
2023/05/30 10:40:06;;;;;;;;;;;31.80;48.20;;;;;;5051476;28;19912;-56
2023/05/30 10:42:45;;;;;;;;;;;31.40;48.20;;;;;;5059952;28;20354;-56
2023/05/30 10:45:11;;;;;;;;;;;32.10;47.00;;;;;;5059907;28;19904;-56
2023/05/30 10:47:59;;;;;;;;;;;32.60;47.00;;;;;;5063381;28;19920;-54
2023/05/30 10:50:28;;;;;;;;;;;32.60;45.00;;;;;;5063737;28;20121;-55
2023/05/30 10:52:56;;;;;;;;;;;32.60;46.90;;;;;;5064367;28;19912;-55
2023/05/30 10:55:22;;;;;;;;;;;32.30;48.30;;;;;;5060529;28;20305;-55
2023/05/30 10:57:47;;;;;;;;;;;32.20;47.60;;;;;;5042420;28;19919;-55
2023/05/30 11:00:17;;;;;;;;;;;32.50;45.80;;;;;;5042155;28;19931;-55
2023/05/30 11:02:48;;;;;;;;;;;32.70;45.50;;;;;;5056768;28;19912;-55
2023/05/30 11:05:18;;;;;;;;;;;33.30;47.00;;;;;;5060539;28;19908;-56
2023/05/30 11:07:44;;;;;;;;;;;31.80;46.60;;;;;;5066827;28;20269;-55
2023/05/30 11:10:14;;;;;;;;;;;30.20;47.70;;;;;;5067859;28;19947;-54
2023/05/30 11:12:47;;;;;;;;;;;28.80;50.40;;;;;;5056639;28;20039;-55
2023/05/30 11:15:17;;;;;;;;;;;28.60;51.30;;;;;;5044157;28;20342;-54
2023/05/30 11:17:42;;;;;;;;;;;28.20;52.10;;;;;;5061942;28;19993;-54
2023/05/30 11:20:08;;;;;;;;;;;28.40;52.50;;;;;;5051248;28;20405;-55
2023/05/30 11:22:34;;;;;;;;;;;28.70;52.20;;;;;;5069068;28;19999;-55
2023/05/30 11:25:19;;;;;;;;;;;29.70;52.30;;;;;;5050114;28;19962;-55
2023/05/30 11:27:59;;;;;;;;;;;30.40;50.50;;;;;;5068371;28;20273;-55
2023/05/30 11:30:25;;;;;;;;;;;31.40;50.00;;;;;;5065785;28;19931;-55
2023/05/30 11:32:53;;;;;;;;;;;31.80;50.00;;;;;;5068533;28;19951;-55
2023/05/30 11:35:18;;;;;;;;;;;31.40;48.20;;;;;;5069332;28;19949;-55
2023/05/30 11:37:44;;;;;;;;;;;31.60;47.70;;;;;;5068370;28;19909;-55
2023/05/30 11:40:13;;;;;;;;;;;32.00;48.40;;;;;;5051572;28;19919;-55
2023/05/30 11:42:39;;;;;;;;;;;32.30;47.90;;;;;;5048687;28;19904;-55
2023/05/30 11:45:05;;;;;;;;;;;33.30;45.20;;;;;;5061874;28;20343;-55
2023/05/30 11:47:31;;;;;;;;;;;32.60;45.20;;;;;;5061930;28;19995;-55
2023/05/30 11:49:57;;;;;;;;;;;31.70;47.30;;;;;;5049451;28;19912;-55
2023/05/30 11:52:22;;;;;;;;;;;31.00;47.70;;;;;;5061719;28;19909;-55
2023/05/30 11:54:48;;;;;;;;;;;30.40;48.50;;;;;;5068778;28;19912;-55
2023/05/30 11:57:17;;;;;;;;;;;29.60;48.80;;;;;;5067583;28;19943;-55
2023/05/30 11:59:44;;;;;;;;;;;28.20;50.60;;;;;;5066774;28;19908;-54
2023/05/30 12:02:10;;;;;;;;;;;27.10;54.10;;;;;;5071469;28;20006;-54
2023/05/30 12:04:37;;;;;;;;;;;26.40;53.90;;;;;;5072651;28;20304;-53
2023/05/30 12:07:03;;;;;;;;;;;25.80;55.90;;;;;;5071439;28;19912;-54
2023/05/30 12:09:34;;;;;;;;;;;25.30;55.30;;;;;;5071967;28;19958;-54
2023/05/30 12:12:00;;;;;;;;;;;24.80;57.30;;;;;;5058123;28;19908;-53
2023/05/30 12:14:44;;;;;;;;;;;24.90;58.00;;;;;;5071870;28;19931;-53
2023/05/30 12:17:11;;;;;;;;;;;25.60;57.40;;;;;;5070579;28;19944;-53
2023/05/30 12:19:36;;;;;;;;;;;25.50;55.00;;;;;;5056966;28;20437;-53
2023/05/30 12:22:03;;;;;;;;;;;25.70;55.60;;;;;;5065398;28;19992;-54
2023/05/30 12:24:33;;;;;;;;;;;25.40;55.30;;;;;;5072498;28;19940;-53
2023/05/30 12:26:59;;;;;;;;;;;25.10;56.30;;;;;;5066151;28;19959;-52
2023/05/30 12:29:27;;;;;;;;;;;24.80;57.10;;;;;;5066667;28;19912;-54
2023/05/30 12:31:53;;;;;;;;;;;24.80;56.70;;;;;;5051247;28;20301;-54
2023/05/30 12:34:19;;;;;;;;;;;24.50;57.50;;;;;;5069384;28;20015;-53
2023/05/30 12:36:45;;;;;;;;;;;24.60;58.90;;;;;;5068430;28;19958;-54
2023/05/30 12:39:11;;;;;;;;;;;24.20;56.90;;;;;;5066237;28;20357;-54
2023/05/30 12:41:39;;;;;;;;;;;24.10;59.60;;;;;;5067549;28;19960;-52
2023/05/30 12:44:04;;;;;;;;;;;24.20;57.70;;;;;;5066594;28;20281;-54
2023/05/30 12:46:33;;;;;;;;;;;24.80;59.20;;;;;;5064922;28;19905;-53
2023/05/30 12:48:59;;;;;;;;;;;25.30;56.90;;;;;;5072247;28;19955;-55
2023/05/30 12:51:25;;;;;;;;;;;26.00;57.60;;;;;;5068829;28;20374;-54
2023/05/30 12:53:53;;;;;;;;;;;25.90;56.10;;;;;;5071531;28;19965;-53
2023/05/30 12:56:18;;;;;;;;;;;25.70;56.80;;;;;;5053811;28;19912;-53
2023/05/30 12:58:44;;;;;;;;;;;25.40;57.70;;;;;;5066388;28;19913;-54
2023/05/30 13:01:10;;;;;;;;;;;25.20;55.20;;;;;;5068935;28;20007;-53
2023/05/30 13:03:36;;;;;;;;;;;24.70;56.20;;;;;;5065895;28;20270;-53
2023/05/30 13:06:02;;;;;;;;;;;24.80;58.00;;;;;;5065500;28;19990;-53
2023/05/30 13:08:28;;;;;;;;;;;25.20;59.80;;;;;;5063506;28;19909;-52
2023/05/30 13:10:54;;;;;;;;;;;25.20;57.30;;;;;;5065810;28;19999;-54
2023/05/30 13:13:19;;;;;;;;;;;25.30;57.60;;;;;;5065194;28;19916;-54
2023/05/30 13:15:45;;;;;;;;;;;25.70;58.90;;;;;;5071310;28;20333;-54
2023/05/30 13:18:10;;;;;;;;;;;25.70;57.50;;;;;;5060182;28;19905;-53
2023/05/30 13:20:36;;;;;;;;;;;25.70;57.00;;;;;;5057781;28;19940;-53
2023/05/30 13:23:09;;;;;;;;;;;25.70;54.00;;;;;;5053536;28;19910;-53
2023/05/30 13:25:35;;;;;;;;;;;25.80;57.00;;;;;;5071154;28;19995;-53
2023/05/30 13:28:00;;;;;;;;;;;25.70;55.50;;;;;;5070473;28;19940;-54
2023/05/30 13:30:26;;;;;;;;;;;25.90;54.60;;;;;;5068615;28;19954;-54
2023/05/30 13:32:52;;;;;;;;;;;26.00;57.30;;;;;;5053187;28;19928;-54
2023/05/30 13:35:17;;;;;;;;;;;26.40;56.60;;;;;;5058365;28;19999;-54
2023/05/30 13:37:43;;;;;;;;;;;26.40;54.10;;;;;;5075701;28;20003;-54
2023/05/30 13:40:09;;;;;;;;;;;26.40;54.00;;;;;;5065322;28;19913;-53
2023/05/30 13:42:36;;;;;;;;;;;26.30;54.60;;;;;;5068501;28;20604;-53
2023/05/30 13:45:02;;;;;;;;;;;26.30;55.30;;;;;;5069880;28;20111;-54
2023/05/30 13:47:27;;;;;;;;;;;26.40;56.20;;;;;;5065087;28;19995;-53
2023/05/30 13:49:53;;;;;;;;;;;26.30;55.10;;;;;;5053319;28;19912;-55
2023/05/30 13:52:18;;;;;;;;;;;26.10;56.00;;;;;;5070864;28;19910;-54
2023/05/30 13:54:44;;;;;;;;;;;25.90;57.30;;;;;;5065381;28;19911;-54
2023/05/30 13:57:09;;;;;;;;;;;25.60;56.40;;;;;;5074068;28;19951;-53
2023/05/30 13:59:34;;;;;;;;;;;25.20;56.60;;;;;;5071805;28;19927;-54
2023/05/30 14:02:00;;;;;;;;;;;24.90;56.60;;;;;;5070843;28;19919;-53
2023/05/30 14:04:25;;;;;;;;;;;24.80;58.90;;;;;;5063847;28;20404;-54
2023/05/30 14:06:51;;;;;;;;;;;24.60;59.50;;;;;;5064670;28;19908;-54
2023/05/30 14:09:19;;;;;;;;;;;24.70;61.30;;;;;;5070018;28;20358;-53
2023/05/30 14:11:47;;;;;;;;;;;24.60;58.70;;;;;;5070732;28;19911;-53
2023/05/30 14:14:12;;;;;;;;;;;24.40;57.50;;;;;;5070736;28;19950;-53
2023/05/30 14:16:37;;;;;;;;;;;24.40;58.30;;;;;;5082455;28;19982;-55